sensor_id;sensor_type;location;lat;lon;timestamp;pressure;altitude;pressure_sealevel;temperature;humidity
3917;BME280;1973;50.518;7.318;2022-11-06T00:02:03;101122.94;;;9.61;100.00
3917;BME280;1973;50.518;7.318;2022-11-06T00:04:30;101112.81;;;9.62;100.00
3917;BME280;1973;50.518;7.318;2022-11-06T00:06:56;101110.06;;;9.62;100.00
3917;BME280;1973;50.518;7.318;2022-11-06T00:09:23;101116.59;;;9.61;100.00
3917;BME280;1973;50.518;7.318;2022-11-06T00:11:49;101116.59;;;9.61;100.00
3917;BME280;1973;50.518;7.318;2022-11-06T00:14:16;101109.41;;;9.60;100.00
3917;BME280;1973;50.518;7.318;2022-11-06T00:16:44;101113.22;;;9.59;100.00
3917;BME280;1973;50.518;7.318;2022-11-06T00:19:11;101104.97;;;9.59;100.00
3917;BME280;1973;50.518;7.318;2022-11-06T00:21:38;101101.38;;;9.58;100.00
3917;BME280;1973;50.518;7.318;2022-11-06T00:24:06;101101.38;;;9.58;100.00
3917;BME280;1973;50.518;7.318;2022-11-06T00:26:33;101110.88;;;9.56;100.00
3917;BME280;1973;50.518;7.318;2022-11-06T00:29:00;101111.06;;;9.54;100.00
3917;BME280;1973;50.518;7.318;2022-11-06T00:31:29;101117.41;;;9.55;100.00
3917;BME280;1973;50.518;7.318;2022-11-06T00:33:57;101122.06;;;9.54;100.00
3917;BME280;1973;50.518;7.318;2022-11-06T00:36:25;101125.66;;;9.55;100.00
3917;BME280;1973;50.518;7.318;2022-11-06T00:38:53;101117.81;;;9.52;100.00
3917;BME280;1973;50.518;7.318;2022-11-06T00:41:21;101113.59;;;9.49;100.00
3917;BME280;1973;50.518;7.318;2022-11-06T00:43:59;101111.03;;;9.48;100.00
3917;BME280;1973;50.518;7.318;2022-11-06T00:46:26;101119.06;;;9.49;100.00
3917;BME280;1973;50.518;7.318;2022-11-06T00:48:53;101116.13;;;9.51;100.00
3917;BME280;1973;50.518;7.318;2022-11-06T00:51:23;101113.38;;;9.51;100.00
3917;BME280;1973;50.518;7.318;2022-11-06T00:53:55;101107.88;;;9.51;100.00
3917;BME280;1973;50.518;7.318;2022-11-06T00:56:22;101115.06;;;9.52;100.00
3917;BME280;1973;50.518;7.318;2022-11-06T00:58:49;101116.78;;;9.53;100.00
3917;BME280;1973;50.518;7.318;2022-11-06T01:01:29;101106.81;;;9.52;100.00
3917;BME280;1973;50.518;7.318;2022-11-06T01:04:01;101115.50;;;9.55;100.00
3917;BME280;1973;50.518;7.318;2022-11-06T01:06:30;101116.56;;;9.54;100.00
3917;BME280;1973;50.518;7.318;2022-11-06T01:08:57;101111.91;;;9.55;100.00
3917;BME280;1973;50.518;7.318;2022-11-06T01:11:45;101112.75;;;9.55;100.00
3917;BME280;1973;50.518;7.318;2022-11-06T01:14:32;101098.41;;;9.53;100.00
3917;BME280;1973;50.518;7.318;2022-11-06T01:16:58;101104.72;;;9.54;100.00
3917;BME280;1973;50.518;7.318;2022-11-06T01:19:24;101108.72;;;9.51;100.00
3917;BME280;1973;50.518;7.318;2022-11-06T01:21:52;101101.97;;;9.54;100.00
3917;BME280;1973;50.518;7.318;2022-11-06T01:24:24;101094.78;;;9.53;100.00
3917;BME280;1973;50.518;7.318;2022-11-06T01:26:52;101098.56;;;9.52;100.00
3917;BME280;1973;50.518;7.318;2022-11-06T01:29:38;101101.72;;;9.49;100.00
3917;BME280;1973;50.518;7.318;2022-11-06T01:32:05;101097.28;;;9.48;100.00
3917;BME280;1973;50.518;7.318;2022-11-06T01:34:32;101094.28;;;9.43;100.00
3917;BME280;1973;50.518;7.318;2022-11-06T01:36:58;101089.41;;;9.38;100.00
3917;BME280;1973;50.518;7.318;2022-11-06T01:39:24;101097.56;;;9.32;100.00
3917;BME280;1973;50.518;7.318;2022-11-06T01:41:52;101088.44;;;9.24;100.00
3917;BME280;1973;50.518;7.318;2022-11-06T01:47:03;101075.66;;;9.10;100.00
3917;BME280;1973;50.518;7.318;2022-11-06T01:49:35;101064.63;;;9.04;100.00
3917;BME280;1973;50.518;7.318;2022-11-06T01:52:05;101070.06;;;8.97;100.00
3917;BME280;1973;50.518;7.318;2022-11-06T01:54:34;101063.28;;;8.93;100.00
3917;BME280;1973;50.518;7.318;2022-11-06T01:57:02;101059.63;;;8.86;100.00
3917;BME280;1973;50.518;7.318;2022-11-06T01:59:31;101062.56;;;8.85;100.00
3917;BME280;1973;50.518;7.318;2022-11-06T02:01:59;101060.22;;;8.82;100.00
3917;BME280;1973;50.518;7.318;2022-11-06T02:04:29;101060.63;;;8.78;100.00
3917;BME280;1973;50.518;7.318;2022-11-06T02:06:57;101067.31;;;8.76;100.00
3917;BME280;1973;50.518;7.318;2022-11-06T02:09:24;101067.53;;;8.74;100.00
3917;BME280;1973;50.518;7.318;2022-11-06T02:11:59;101062.44;;;8.71;100.00
3917;BME280;1973;50.518;7.318;2022-11-06T02:14:59;101065.09;;;8.65;100.00
3917;BME280;1973;50.518;7.318;2022-11-06T02:17:56;101062.13;;;8.60;100.00
3917;BME280;1973;50.518;7.318;2022-11-06T02:20:52;101049.84;;;8.56;100.00
3917;BME280;1973;50.518;7.318;2022-11-06T02:24:00;101059.31;;;8.53;100.00
3917;BME280;1973;50.518;7.318;2022-11-06T02:29:00;101056.13;;;8.50;100.00
3917;BME280;1973;50.518;7.318;2022-11-06T02:31:32;101068.31;;;8.47;100.00
3917;BME280;1973;50.518;7.318;2022-11-06T02:34:03;101065.78;;;8.46;100.00
3917;BME280;1973;50.518;7.318;2022-11-06T02:36:39;101066.38;;;8.41;100.00
3917;BME280;1973;50.518;7.318;2022-11-06T02:39:11;101068.25;;;8.41;100.00
3917;BME280;1973;50.518;7.318;2022-11-06T02:41:43;101061.47;;;8.37;100.00
3917;BME280;1973;50.518;7.318;2022-11-06T02:44:19;101048.78;;;8.36;100.00
3917;BME280;1973;50.518;7.318;2022-11-06T02:46:50;101046.03;;;8.36;100.00
3917;BME280;1973;50.518;7.318;2022-11-06T02:49:45;101045.84;;;8.37;100.00
3917;BME280;1973;50.518;7.318;2022-11-06T02:52:23;101052.06;;;8.46;100.00
3917;BME280;1973;50.518;7.318;2022-11-06T02:54:56;101051.91;;;8.54;100.00
3917;BME280;1973;50.518;7.318;2022-11-06T02:57:26;101056.63;;;8.60;100.00
3917;BME280;1973;50.518;7.318;2022-11-06T03:00:03;101052.69;;;8.69;100.00
3917;BME280;1973;50.518;7.318;2022-11-06T03:02:35;101058.06;;;8.77;100.00
3917;BME280;1973;50.518;7.318;2022-11-06T03:05:11;101057.91;;;8.85;100.00
3917;BME280;1973;50.518;7.318;2022-11-06T03:07:44;101056.75;;;8.94;100.00
3917;BME280;1973;50.518;7.318;2022-11-06T03:10:15;101049.78;;;8.98;100.00
3917;BME280;1973;50.518;7.318;2022-11-06T03:15:42;101048.19;;;9.10;100.00
3917;BME280;1973;50.518;7.318;2022-11-06T03:18:12;101041.44;;;9.13;100.00
3917;BME280;1973;50.518;7.318;2022-11-06T03:20:57;101041.44;;;9.13;100.00
3917;BME280;1973;50.518;7.318;2022-11-06T03:23:42;101029.22;;;9.15;100.00
3917;BME280;1973;50.518;7.318;2022-11-06T03:26:17;101023.31;;;9.18;100.00
3917;BME280;1973;50.518;7.318;2022-11-06T03:28:52;101023.31;;;9.18;100.00
3917;BME280;1973;50.518;7.318;2022-11-06T03:31:25;101023.50;;;9.17;100.00
3917;BME280;1973;50.518;7.318;2022-11-06T03:34:00;101021.63;;;9.17;100.00
3917;BME280;1973;50.518;7.318;2022-11-06T03:36:35;101007.44;;;9.14;100.00
3917;BME280;1973;50.518;7.318;2022-11-06T03:39:10;100994.97;;;9.11;100.00
3917;BME280;1973;50.518;7.318;2022-11-06T03:41:43;101000.88;;;9.08;100.00
3917;BME280;1973;50.518;7.318;2022-11-06T03:44:13;101008.25;;;9.08;100.00
3917;BME280;1973;50.518;7.318;2022-11-06T03:46:49;101027.06;;;9.11;100.00
3917;BME280;1973;50.518;7.318;2022-11-06T03:49:25;101036.56;;;9.08;100.00
3917;BME280;1973;50.518;7.318;2022-11-06T03:52:03;101040.81;;;9.11;100.00
3917;BME280;1973;50.518;7.318;2022-11-06T03:54:34;101037.66;;;9.14;100.00
3917;BME280;1973;50.518;7.318;2022-11-06T03:57:08;101044.63;;;9.16;100.00
3917;BME280;1973;50.518;7.318;2022-11-06T03:59:48;101067.22;;;9.12;100.00
3917;BME280;1973;50.518;7.318;2022-11-06T04:02:16;101071.47;;;9.14;100.00
3917;BME280;1973;50.518;7.318;2022-11-06T04:04:49;101063.50;;;9.19;100.00
3917;BME280;1973;50.518;7.318;2022-11-06T04:07:19;101055.69;;;9.23;100.00
3917;BME280;1973;50.518;7.318;2022-11-06T04:09:54;101057.19;;;9.25;100.00
3917;BME280;1973;50.518;7.318;2022-11-06T04:12:42;101053.41;;;9.26;100.00
3917;BME280;1973;50.518;7.318;2022-11-06T04:15:30;101059.75;;;9.27;100.00
3917;BME280;1973;50.518;7.318;2022-11-06T04:17:58;101058.88;;;9.26;100.00
3917;BME280;1973;50.518;7.318;2022-11-06T04:20:27;101060.56;;;9.27;100.00
3917;BME280;1973;50.518;7.318;2022-11-06T04:23:26;101066.47;;;9.24;100.00
3917;BME280;1973;50.518;7.318;2022-11-06T04:26:19;101057.59;;;9.22;100.00
3917;BME280;1973;50.518;7.318;2022-11-06T04:29:12;101059.88;;;9.19;100.00
3917;BME280;1973;50.518;7.318;2022-11-06T04:31:51;101054.59;;;9.17;100.00
3917;BME280;1973;50.518;7.318;2022-11-06T04:43:00;101046.31;;;9.11;100.00
3917;BME280;1973;50.518;7.318;2022-11-06T04:45:32;101026.47;;;9.15;100.00
3917;BME280;1973;50.518;7.318;2022-11-06T04:48:01;101027.56;;;9.21;100.00
3917;BME280;1973;50.518;7.318;2022-11-06T04:50:29;101030.56;;;9.26;100.00
3917;BME280;1973;50.518;7.318;2022-11-06T04:53:00;101019.81;;;9.31;100.00
3917;BME280;1973;50.518;7.318;2022-11-06T04:55:28;101032.31;;;9.34;100.00
3917;BME280;1973;50.518;7.318;2022-11-06T04:57:55;101022.16;;;9.34;100.00
3917;BME280;1973;50.518;7.318;2022-11-06T05:00:22;101015.81;;;9.34;100.00
3917;BME280;1973;50.518;7.318;2022-11-06T05:02:48;101006.91;;;9.32;100.00
3917;BME280;1973;50.518;7.318;2022-11-06T05:05:15;100995.72;;;9.33;100.00
3917;BME280;1973;50.518;7.318;2022-11-06T05:07:41;100985.78;;;9.32;100.00
3917;BME280;1973;50.518;7.318;2022-11-06T05:10:08;100991.72;;;9.36;100.00
3917;BME280;1973;50.518;7.318;2022-11-06T05:12:35;100994.06;;;9.39;100.00
3917;BME280;1973;50.518;7.318;2022-11-06T05:15:01;100991.56;;;9.44;100.00
3917;BME280;1973;50.518;7.318;2022-11-06T05:17:27;100985.03;;;9.51;100.00
3917;BME280;1973;50.518;7.318;2022-11-06T05:20:01;100971.75;;;9.55;100.00
3917;BME280;1973;50.518;7.318;2022-11-06T05:22:27;100977.91;;;9.63;100.00
3917;BME280;1973;50.518;7.318;2022-11-06T05:25:13;100967.38;;;9.67;100.00
3917;BME280;1973;50.518;7.318;2022-11-06T05:27:39;100966.75;;;9.71;100.00
3917;BME280;1973;50.518;7.318;2022-11-06T05:30:06;100958.94;;;9.75;100.00
3917;BME280;1973;50.518;7.318;2022-11-06T05:32:33;100943.72;;;9.79;100.00
3917;BME280;1973;50.518;7.318;2022-11-06T05:34:59;100934.41;;;9.80;100.00
3917;BME280;1973;50.518;7.318;2022-11-06T05:37:26;100922.97;;;9.83;100.00
3917;BME280;1973;50.518;7.318;2022-11-06T05:39:52;100927.25;;;9.86;100.00
3917;BME280;1973;50.518;7.318;2022-11-06T05:42:19;100932.75;;;9.86;100.00
3917;BME280;1973;50.518;7.318;2022-11-06T05:44:46;100933.59;;;9.86;100.00
3917;BME280;1973;50.518;7.318;2022-11-06T05:47:13;100938.44;;;9.84;100.00
3917;BME280;1973;50.518;7.318;2022-11-06T05:49:39;100929.56;;;9.82;100.00
3917;BME280;1973;50.518;7.318;2022-11-06T05:52:06;100918.34;;;9.84;100.00
3917;BME280;1973;50.518;7.318;2022-11-06T05:54:32;100907.16;;;9.85;100.00
3917;BME280;1973;50.518;7.318;2022-11-06T05:56:59;100912.84;;;9.84;100.00
3917;BME280;1973;50.518;7.318;2022-11-06T05:59:25;100898.25;;;9.83;100.00
3917;BME280;1973;50.518;7.318;2022-11-06T06:01:52;100887.47;;;9.82;100.00
3917;BME280;1973;50.518;7.318;2022-11-06T06:04:18;100886.63;;;9.81;100.00
3917;BME280;1973;50.518;7.318;2022-11-06T06:06:45;100889.13;;;9.76;100.00
3917;BME280;1973;50.518;7.318;2022-11-06T06:09:11;100892.97;;;9.75;100.00
3917;BME280;1973;50.518;7.318;2022-11-06T06:11:38;100884.28;;;9.71;100.00
3917;BME280;1973;50.518;7.318;2022-11-06T06:14:04;100881.72;;;9.70;100.00
3917;BME280;1973;50.518;7.318;2022-11-06T06:16:30;100885.31;;;9.64;100.00
3917;BME280;1973;50.518;7.318;2022-11-06T06:18:57;100887.41;;;9.62;100.00
3917;BME280;1973;50.518;7.318;2022-11-06T06:21:23;100885.06;;;9.59;100.00
3917;BME280;1973;50.518;7.318;2022-11-06T06:23:50;100882.75;;;9.56;100.00
3917;BME280;1973;50.518;7.318;2022-11-06T06:26:16;100875.97;;;9.52;100.00
3917;BME280;1973;50.518;7.318;2022-11-06T06:28:43;100870.47;;;9.52;100.00
3917;BME280;1973;50.518;7.318;2022-11-06T06:31:10;100866.03;;;9.51;100.00
3917;BME280;1973;50.518;7.318;2022-11-06T06:33:36;100863.06;;;9.46;100.00
3917;BME280;1973;50.518;7.318;2022-11-06T06:36:04;100863.47;;;9.43;100.00
3917;BME280;1973;50.518;7.318;2022-11-06T06:38:31;100867.91;;;9.44;100.00
3917;BME280;1973;50.518;7.318;2022-11-06T06:41:04;100873.63;;;9.42;100.00
3917;BME280;1973;50.518;7.318;2022-11-06T06:43:31;100880.16;;;9.41;100.00
3917;BME280;1973;50.518;7.318;2022-11-06T06:46:02;100877.41;;;9.41;100.00
3917;BME280;1973;50.518;7.318;2022-11-06T06:48:29;100883.97;;;9.40;100.00
3917;BME280;1973;50.518;7.318;2022-11-06T06:50:56;100895.81;;;9.47;100.00
3917;BME280;1973;50.518;7.318;2022-11-06T06:53:23;100880.00;;;9.49;100.00
3917;BME280;1973;50.518;7.318;2022-11-06T06:55:51;100877.88;;;9.51;100.00
3917;BME280;1973;50.518;7.318;2022-11-06T06:58:18;100887.38;;;9.49;100.00
3917;BME280;1973;50.518;7.318;2022-11-06T07:00:45;100886.72;;;9.47;100.00
3917;BME280;1973;50.518;7.318;2022-11-06T07:03:12;100887.16;;;9.44;100.00
3917;BME280;1973;50.518;7.318;2022-11-06T07:05:39;100888.19;;;9.43;100.00
3917;BME280;1973;50.518;7.318;2022-11-06T07:08:05;100887.75;;;9.39;100.00
3917;BME280;1973;50.518;7.318;2022-11-06T07:10:32;100893.06;;;9.41;100.00
3917;BME280;1973;50.518;7.318;2022-11-06T07:13:02;100894.94;;;9.40;100.00
3917;BME280;1973;50.518;7.318;2022-11-06T07:15:29;100899.59;;;9.40;100.00
3917;BME280;1973;50.518;7.318;2022-11-06T07:18:05;100903.19;;;9.40;100.00
3917;BME280;1973;50.518;7.318;2022-11-06T07:20:33;100896.84;;;9.40;100.00
3917;BME280;1973;50.518;7.318;2022-11-06T07:23:06;100895.81;;;9.41;100.00
3917;BME280;1973;50.518;7.318;2022-11-06T07:25:33;100901.50;;;9.39;100.00
3917;BME280;1973;50.518;7.318;2022-11-06T07:28:04;100905.50;;;9.37;100.00
3917;BME280;1973;50.518;7.318;2022-11-06T07:30:31;100911.41;;;9.34;100.00
3917;BME280;1973;50.518;7.318;2022-11-06T07:33:02;100898.72;;;9.33;100.00
3917;BME280;1973;50.518;7.318;2022-11-06T07:35:29;100916.03;;;9.26;100.00
3917;BME280;1973;50.518;7.318;2022-11-06T07:37:56;100891.94;;;9.28;100.00
3917;BME280;1973;50.518;7.318;2022-11-06T07:40:22;100883.69;;;9.28;100.00
3917;BME280;1973;50.518;7.318;2022-11-06T07:42:49;100878.88;;;9.31;100.00
3917;BME280;1973;50.518;7.318;2022-11-06T07:45:15;100880.53;;;9.32;100.00
3917;BME280;1973;50.518;7.318;2022-11-06T07:47:42;100876.75;;;9.33;100.00
3917;BME280;1973;50.518;7.318;2022-11-06T07:50:08;100892.81;;;9.36;100.00
3917;BME280;1973;50.518;7.318;2022-11-06T07:52:35;100890.31;;;9.41;100.00
3917;BME280;1973;50.518;7.318;2022-11-06T07:55:01;100890.75;;;9.51;100.00
3917;BME280;1973;50.518;7.318;2022-11-06T07:57:28;100895.03;;;9.60;100.00
3917;BME280;1973;50.518;7.318;2022-11-06T07:59:54;100890.59;;;9.65;100.00
3917;BME280;1973;50.518;7.318;2022-11-06T08:02:20;100889.53;;;9.66;100.00
3917;BME280;1973;50.518;7.318;2022-11-06T08:04:47;100888.50;;;9.67;100.00
3917;BME280;1973;50.518;7.318;2022-11-06T08:07:13;100884.66;;;9.68;100.00
3917;BME280;1973;50.518;7.318;2022-11-06T08:09:40;100889.72;;;9.65;100.00
3917;BME280;1973;50.518;7.318;2022-11-06T08:12:07;100894.59;;;9.63;100.00
3917;BME280;1973;50.518;7.318;2022-11-06T08:14:33;100889.53;;;9.60;100.00
3917;BME280;1973;50.518;7.318;2022-11-06T08:17:06;100879.16;;;9.55;100.00
3917;BME280;1973;50.518;7.318;2022-11-06T08:19:33;100880.63;;;9.58;100.00
3917;BME280;1973;50.518;7.318;2022-11-06T08:21:59;100869.63;;;9.51;100.00
3917;BME280;1973;50.518;7.318;2022-11-06T08:24:26;100859.47;;;9.52;100.00
3917;BME280;1973;50.518;7.318;2022-11-06T08:26:52;100863.72;;;9.54;100.00
3917;BME280;1973;50.518;7.318;2022-11-06T08:29:19;100843.84;;;9.59;100.00
3917;BME280;1973;50.518;7.318;2022-11-06T08:31:45;100843.00;;;9.65;100.00
3917;BME280;1973;50.518;7.318;2022-11-06T08:34:12;100841.34;;;9.70;100.00
3917;BME280;1973;50.518;7.318;2022-11-06T08:36:42;100840.91;;;9.73;100.00
3917;BME280;1973;50.518;7.318;2022-11-06T08:39:15;100828.66;;;9.76;100.00
3917;BME280;1973;50.518;7.318;2022-11-06T08:41:41;100831.63;;;9.81;100.00
3917;BME280;1973;50.518;7.318;2022-11-06T08:44:08;100824.44;;;9.80;100.00
3917;BME280;1973;50.518;7.318;2022-11-06T08:46:34;100823.16;;;9.76;100.00
3917;BME280;1973;50.518;7.318;2022-11-06T08:49:01;100826.75;;;9.83;100.00
3917;BME280;1973;50.518;7.318;2022-11-06T08:51:27;100819.16;;;9.85;100.00
3917;BME280;1973;50.518;7.318;2022-11-06T08:53:54;100817.69;;;9.83;100.00
3917;BME280;1973;50.518;7.318;2022-11-06T08:56:20;100820.84;;;9.93;100.00
3917;BME280;1973;50.518;7.318;2022-11-06T08:58:47;100820.00;;;10.05;100.00
3917;BME280;1973;50.518;7.318;2022-11-06T09:01:20;100827.88;;;10.15;100.00
3917;BME280;1973;50.518;7.318;2022-11-06T09:03:49;100821.94;;;10.18;100.00
3917;BME280;1973;50.518;7.318;2022-11-06T09:06:16;100819.81;;;10.27;100.00
3917;BME280;1973;50.518;7.318;2022-11-06T09:08:42;100827.00;;;10.27;100.00
3917;BME280;1973;50.518;7.318;2022-11-06T09:11:09;100819.38;;;10.36;100.00
3917;BME280;1973;50.518;7.318;2022-11-06T09:13:37;100819.78;;;10.40;100.00
3917;BME280;1973;50.518;7.318;2022-11-06T09:16:04;100808.38;;;10.49;100.00
3917;BME280;1973;50.518;7.318;2022-11-06T09:18:36;100817.22;;;10.58;100.00
3917;BME280;1973;50.518;7.318;2022-11-06T09:21:03;100804.50;;;10.57;100.00
3917;BME280;1973;50.518;7.318;2022-11-06T09:23:29;100804.09;;;10.60;100.00
3917;BME280;1973;50.518;7.318;2022-11-06T09:25:56;100792.81;;;10.68;100.00
3917;BME280;1973;50.518;7.318;2022-11-06T09:28:23;100803.16;;;10.79;100.00
3917;BME280;1973;50.518;7.318;2022-11-06T09:30:49;100787.91;;;10.83;100.00
3917;BME280;1973;50.518;7.318;2022-11-06T09:33:16;100780.66;;;10.95;100.00
3917;BME280;1973;50.518;7.318;2022-11-06T09:35:43;100782.69;;;11.19;100.00
3917;BME280;1973;50.518;7.318;2022-11-06T09:38:11;100778.78;;;11.27;100.00
3917;BME280;1973;50.518;7.318;2022-11-06T09:40:51;100777.53;;;11.30;100.00
3917;BME280;1973;50.518;7.318;2022-11-06T09:46:22;100768.63;;;11.28;100.00
3917;BME280;1973;50.518;7.318;2022-11-06T09:48:55;100755.94;;;11.27;100.00
3917;BME280;1973;50.518;7.318;2022-11-06T09:51:32;100756.94;;;11.32;100.00
3917;BME280;1973;50.518;7.318;2022-11-06T09:54:36;100741.44;;;11.38;100.00
3917;BME280;1973;50.518;7.318;2022-11-06T09:57:13;100744.72;;;11.53;100.00
3917;BME280;1973;50.518;7.318;2022-11-06T09:59:44;100734.44;;;11.66;100.00
3917;BME280;1973;50.518;7.318;2022-11-06T10:02:22;100751.13;;;11.78;100.00
3917;BME280;1973;50.518;7.318;2022-11-06T10:05:01;100754.50;;;12.05;100.00
3917;BME280;1973;50.518;7.318;2022-11-06T10:07:33;100756.00;;;12.26;100.00
3917;BME280;1973;50.518;7.318;2022-11-06T10:10:04;100755.56;;;12.47;100.00
3917;BME280;1973;50.518;7.318;2022-11-06T10:15:21;100743.03;;;12.99;100.00
3917;BME280;1973;50.518;7.318;2022-11-06T10:17:53;100730.38;;;13.09;100.00
3917;BME280;1973;50.518;7.318;2022-11-06T10:20:34;100720.69;;;13.00;100.00
3917;BME280;1973;50.518;7.318;2022-11-06T10:23:29;100707.41;;;13.39;100.00
3917;BME280;1973;50.518;7.318;2022-11-06T10:26:19;100711.53;;;13.48;100.00
3917;BME280;1973;50.518;7.318;2022-11-06T10:34:42;100688.97;;;13.74;100.00
3917;BME280;1973;50.518;7.318;2022-11-06T10:37:16;100676.78;;;13.63;100.00
3917;BME280;1973;50.518;7.318;2022-11-06T10:39:44;100668.94;;;13.49;100.00
3917;BME280;1973;50.518;7.318;2022-11-06T10:44:45;100680.44;;;13.04;100.00
3917;BME280;1973;50.518;7.318;2022-11-06T10:47:37;100663.09;;;12.97;100.00
3917;BME280;1973;50.518;7.318;2022-11-06T10:50:10;100670.06;;;12.88;100.00
3917;BME280;1973;50.518;7.318;2022-11-06T10:52:47;100659.19;;;12.75;100.00
3917;BME280;1973;50.518;7.318;2022-11-06T10:58:22;100659.84;;;12.59;100.00
3917;BME280;1973;50.518;7.318;2022-11-06T11:00:53;100640.88;;;12.62;100.00
3917;BME280;1973;50.518;7.318;2022-11-06T11:03:23;100638.06;;;12.51;100.00
3917;BME280;1973;50.518;7.318;2022-11-06T11:05:52;100630.00;;;12.49;100.00
3917;BME280;1973;50.518;7.318;2022-11-06T11:11:21;100618.63;;;12.57;100.00
3917;BME280;1973;50.518;7.318;2022-11-06T11:16:36;100616.56;;;12.71;100.00
3917;BME280;1973;50.518;7.318;2022-11-06T11:19:38;100588.88;;;12.89;100.00
3917;BME280;1973;50.518;7.318;2022-11-06T11:22:18;100597.59;;;12.86;100.00
3917;BME280;1973;50.518;7.318;2022-11-06T11:25:04;100581.00;;;12.86;100.00
3917;BME280;1973;50.518;7.318;2022-11-06T11:27:36;100573.88;;;12.97;100.00
3917;BME280;1973;50.518;7.318;2022-11-06T11:30:04;100559.44;;;13.06;100.00
3917;BME280;1973;50.518;7.318;2022-11-06T11:32:31;100563.28;;;13.05;100.00
3917;BME280;1973;50.518;7.318;2022-11-06T11:34:58;100571.28;;;13.13;100.00
3917;BME280;1973;50.518;7.318;2022-11-06T11:37:30;100558.81;;;13.23;100.00
3917;BME280;1973;50.518;7.318;2022-11-06T11:43:23;100583.53;;;13.18;100.00
3917;BME280;1973;50.518;7.318;2022-11-06T11:51:45;100530.59;;;13.95;100.00
3917;BME280;1973;50.518;7.318;2022-11-06T11:59:41;100500.31;;;15.40;80.89
3917;BME280;1973;50.518;7.318;2022-11-06T12:02:42;100509.56;;;15.29;72.12
3917;BME280;1973;50.518;7.318;2022-11-06T12:05:17;100492.75;;;15.19;71.37
3917;BME280;1973;50.518;7.318;2022-11-06T12:07:48;100485.25;;;15.20;74.42
3917;BME280;1973;50.518;7.318;2022-11-06T12:12:52;100475.38;;;14.90;74.65
3917;BME280;1973;50.518;7.318;2022-11-06T12:15:21;100484.03;;;14.77;77.98
3917;BME280;1973;50.518;7.318;2022-11-06T12:18:03;100473.34;;;14.69;72.58
3917;BME280;1973;50.518;7.318;2022-11-06T12:20:41;100468.88;;;14.51;74.62
3917;BME280;1973;50.518;7.318;2022-11-06T12:23:26;100454.50;;;14.38;73.16
3917;BME280;1973;50.518;7.318;2022-11-06T12:28:44;100438.91;;;14.20;76.88
3917;BME280;1973;50.518;7.318;2022-11-06T12:34:05;100430.25;;;14.17;75.58
3917;BME280;1973;50.518;7.318;2022-11-06T12:36:44;100435.16;;;14.26;75.21
3917;BME280;1973;50.518;7.318;2022-11-06T12:39:15;100435.09;;;14.38;77.81
3917;BME280;1973;50.518;7.318;2022-11-06T12:41:47;100424.75;;;14.33;79.54
3917;BME280;1973;50.518;7.318;2022-11-06T12:44:16;100418.69;;;14.20;82.26
3917;BME280;1973;50.518;7.318;2022-11-06T12:47:04;100434.03;;;14.10;79.99
3917;BME280;1973;50.518;7.318;2022-11-06T12:52:37;100421.72;;;14.63;79.91
3917;BME280;1973;50.518;7.318;2022-11-06T12:55:18;100408.28;;;14.88;76.33
3917;BME280;1973;50.518;7.318;2022-11-06T13:00:24;100366.97;;;14.53;71.78
3917;BME280;1973;50.518;7.318;2022-11-06T13:03:14;100376.22;;;14.31;65.33
3917;BME280;1973;50.518;7.318;2022-11-06T13:05:59;100366.63;;;14.05;66.86
3917;BME280;1973;50.518;7.318;2022-11-06T13:08:55;100357.00;;;14.07;65.95
3917;BME280;1973;50.518;7.318;2022-11-06T13:17:00;100373.84;;;13.89;67.50
3917;BME280;1973;50.518;7.318;2022-11-06T13:19:48;100378.94;;;13.97;69.06
3917;BME280;1973;50.518;7.318;2022-11-06T13:25:29;100383.28;;;13.93;66.92
3917;BME280;1973;50.518;7.318;2022-11-06T13:28:43;100387.28;;;13.86;66.13
3917;BME280;1973;50.518;7.318;2022-11-06T13:31:13;100385.03;;;13.83;68.87
3917;BME280;1973;50.518;7.318;2022-11-06T13:33:47;100379.53;;;13.71;67.25
3917;BME280;1973;50.518;7.318;2022-11-06T13:36:14;100368.63;;;13.64;68.84
3917;BME280;1973;50.518;7.318;2022-11-06T13:38:48;100371.66;;;13.63;66.78
3917;BME280;1973;50.518;7.318;2022-11-06T13:41:21;100369.78;;;13.52;66.89
3917;BME280;1973;50.518;7.318;2022-11-06T13:46:36;100365.91;;;13.53;68.25
3917;BME280;1973;50.518;7.318;2022-11-06T13:51:53;100349.72;;;13.45;68.71
3917;BME280;1973;50.518;7.318;2022-11-06T13:54:34;100344.06;;;13.40;69.27
3917;BME280;1973;50.518;7.318;2022-11-06T13:57:21;100338.06;;;13.31;67.69
3917;BME280;1973;50.518;7.318;2022-11-06T14:00:22;100334.13;;;13.27;67.86
3917;BME280;1973;50.518;7.318;2022-11-06T14:06:07;100328.53;;;13.10;68.69
3917;BME280;1973;50.518;7.318;2022-11-06T14:08:44;100323.09;;;13.04;69.82
3917;BME280;1973;50.518;7.318;2022-11-06T14:11:15;100332.13;;;12.99;71.71
3917;BME280;1973;50.518;7.318;2022-11-06T14:16:35;100335.75;;;12.88;75.06
3917;BME280;1973;50.518;7.318;2022-11-06T14:19:06;100346.09;;;12.81;75.92
3917;BME280;1973;50.518;7.318;2022-11-06T14:26:47;100338.03;;;12.68;79.43
3917;BME280;1973;50.518;7.318;2022-11-06T14:29:40;100317.75;;;12.62;83.13
3917;BME280;1973;50.518;7.318;2022-11-06T14:34:49;100318.81;;;12.50;81.22
3917;BME280;1973;50.518;7.318;2022-11-06T14:44:55;100326.75;;;12.23;83.38
3917;BME280;1973;50.518;7.318;2022-11-06T14:47:29;100314.72;;;12.17;84.25
3917;BME280;1973;50.518;7.318;2022-11-06T14:50:02;100306.44;;;12.17;84.15
3917;BME280;1973;50.518;7.318;2022-11-06T14:52:41;100305.50;;;12.12;85.51
3917;BME280;1973;50.518;7.318;2022-11-06T14:55:23;100301.88;;;12.11;85.39
3917;BME280;1973;50.518;7.318;2022-11-06T14:57:52;100288.53;;;12.08;85.28
3917;BME280;1973;50.518;7.318;2022-11-06T15:03:21;100312.41;;;12.03;85.68
3917;BME280;1973;50.518;7.318;2022-11-06T15:05:55;100323.56;;;11.96;85.43
3917;BME280;1973;50.518;7.318;2022-11-06T15:16:46;100364.38;;;11.76;87.20
3917;BME280;1973;50.518;7.318;2022-11-06T15:19:25;100341.09;;;11.72;87.56
3917;BME280;1973;50.518;7.318;2022-11-06T15:24:35;100350.00;;;11.74;89.38
3917;BME280;1973;50.518;7.318;2022-11-06T15:27:07;100350.84;;;11.75;89.78
3917;BME280;1973;50.518;7.318;2022-11-06T15:29:39;100356.38;;;11.75;90.48
3917;BME280;1973;50.518;7.318;2022-11-06T15:32:23;100347.47;;;11.73;90.24
3917;BME280;1973;50.518;7.318;2022-11-06T15:35:07;100327.53;;;11.70;90.71